Weather observations for the past three days for
Redwood Falls Municipal Airport
Metric (Imperial)
Date Time (cdt) Wind (kph) Vis. (km) Weather Sky Cond. Temperature (ºC) Relative Humidity Wind Chill (°C) Heat Index (°C) Pressure Precipitation (cm)
Air Dwpt 6 hour altimeter (cm) sea level (mb) 1 hr 3 hr 6 hr
Max. Min.
04 19:53 NE 7 16.09 Fair CLR 26.1 22.2 79% 28 75.97 1012.4
04 18:53 NE 9 16.09 Fair CLR 28.3 21.7 30 27.8 67% 31 76 1012.4
04 17:53 Vrbl 7 16.09 Fair CLR 29.4 21.1 61% 32 76 1012.4
04 16:53 N 11 16.09 Fair CLR 30 21.1 59% 33 75.97 1012.1
04 15:53 NE 11 16.09 Fair CLR 28.9 21.7 65% 32 75.97 1012.0
04 14:53 N 13 16.09 Fair CLR 28.9 22.2 67% 32 75.97 1012.2
04 13:53 N 13 16.09 Fair CLR 28.9 22.8 70% 32 75.97 1012.1
04 12:53 Vrbl 9 16.09 A Few Clouds FEW012 27.8 22.8 27.8 20.6 74% 31 75.97 1012.1
04 10:53 N 11 6.44 Fog/Mist OVC003 22.2 21.1 94% 75.95 1011.9
04 09:53 W 9 4.02 Fog/Mist OVC002 22.2 20.6 91% 75.9 1011.4
04 08:53 NW 9 8.05 Fog/Mist CLR 21.7 20 90% 75.87 1010.8
04 07:53 W 9 9.66 Fog/Mist CLR 20.6 20 96% 75.84 1010.3
04 06:53 NW 13 8.05 Fog/Mist CLR 20.6 20 22.8 20.6 96% 75.79 1009.6
04 05:53 W 7 3.22 Fog/Mist CLR 21.1 21.1 100% 75.77 1009.2
04 04:53 Calm 8.05 Fog/Mist CLR 21.1 20.6 97% 75.72 1008.8
04 03:53 SE 6 12.87 Fair CLR 21.7 21.1 96% 75.72 1008.5
04 02:53 SE 7 11.27 Fair CLR 21.7 21.7 100% 75.69 1008.2
04 01:53 E 6 14.48 Fair CLR 22.8 22.2 96% 75.69 1008.3
04 00:53 S 7 16.09 Fair CLR 22.8 21.7 31.7 22.2 94% 75.67 1007.9
03 23:53 Calm 16.09 Fair CLR 23.3 22.2 94% 75.64 1007.7
03 22:53 SE 7 16.09 NULL NULL 23.9 22.2 90% 23 75.64 1007.6
03 21:53 E 6 16.09 Fair CLR 25.6 22.8 85% 27 75.64 1007.7
03 20:53 SE 11 16.09 Fair CLR 25 21.7 82% 26 75.59 1007.1
03 19:53 S 13 16.09 Fair CLR 28.9 21.1 63% 31 75.54 1006.4
03 18:53 S 19 16.09 Fair CLR 31.7 22.2 33.9 31.7 57% 36 75.51 1006.1
03 17:53 S 19 16.09 Fair CLR 32.8 21.7 52% 36 75.49 1005.7
03 16:53 S 24 16.09 Fair CLR 33.9 21.7 49% 38 75.44 1005.0
03 15:53 S 28 16.09 Fair CLR 33.3 21.1 49% 37 75.46 1005.2
03 14:53 S 35 G 46 16.09 Fair and Breezy CLR 33.3 20.6 47% 36 75.51 1005.8
03 13:53 S 30 G 39 16.09 Fair CLR 32.8 20 47% 35 75.51 1005.9
03 12:53 S 28 G 41 16.09 Fair CLR 32.8 19.4 32.8 21.1 45% 35 75.57 1006.5
03 11:53 S 22 G 39 16.09 Fair CLR 31.1 20.6 54% 34 75.62 1007.2
03 10:53 SE 28 16.09 Fair CLR 28.3 20.6 63% 30 75.62 1007.2
03 09:53 SE 26 16.09 Fair CLR 26.7 19.4 64% 28 75.62 1007.4
03 08:53 SE 20 16.09 Fair CLR 24.4 18.9 72% 25 75.64 1007.7
03 07:53 SE 11 16.09 Fair CLR 22.2 18.9 82% 75.69 1008.4
03 06:53 E 7 11.27 Fair CLR 21.1 20 22.8 21.1 93% 75.67 1008.0
03 05:53 NE 9 9.66 Fog/Mist FEW100 21.7 21.1 96% 75.67 1008.0
03 04:53 E 11 12.87 Fair CLR 21.7 21.1 96% 75.67 1008.0
03 03:53 E 9 12.87 Fair CLR 22.2 21.1 94% 75.67 1008.0
03 01:53 NE 11 16.09 A Few Clouds FEW120 22.2 21.1 94% 75.72 1008.8
03 00:53 E 9 16.09 Fair CLR 22.8 21.1 28.3 22.8 90% 75.74 1009.2
02 23:53 NE 11 16.09 Fair CLR 23.3 21.1 88% 75.77 1009.3
02 22:53 E 11 16.09 Fair CLR 23.9 21.1 84% 24 75.77 1009.6
02 21:53 E 11 16.09 Fair CLR 24.4 21.1 82% 25 75.77 1009.7
02 20:53 E 11 16.09 Fair CLR 25.6 21.7 79% 27 75.77 1009.5
02 19:53 E 11 16.09 Fair CLR 26.7 21.7 74% 29 75.74 1009.3
02 18:53 E 13 16.09 Fair CLR 28.3 21.7 30.6 26.1 67% 31 75.74 1009.2
02 17:53 E 11 16.09 Fair CLR 30 21.7 61% 33 75.74 1009.3
02 16:53 E 13 16.09 Fair CLR 30.6 21.1 57% 33 75.77 1009.4
02 15:53 Vrbl 6 16.09 Fair CLR 30 20.6 57% 32 75.82 1010.1
02 14:53 SE 9 16.09 Fair CLR 29.4 20 57% 31 75.84 1010.5
02 13:53 SE 15 16.09 Fair CLR 28.3 20 61% 30 75.9 1011.1
02 12:53 E 9 16.09 Fair CLR 26.1 19.4 26.1 17.8 67% 27 75.92 1011.6
02 11:53 Vrbl 11 16.09 A Few Clouds FEW017 25 19.4 71% 26 75.97 1012.3
02 10:53 NE 6 16.09 Fair CLR 22.8 18.9 79% 75.97 1012.4
02 09:53 Calm 16.09 Partly Cloudy SCT012 21.7 18.3 81% 75.95 1012.1
02 08:53 E 11 16.09 Fair CLR 20 17.8 87% 75.92 1011.7
02 07:53 N 7 16.09 Fair CLR 18.3 17.2 93% 75.97 1012.3
02 06:53 E 9 16.09 Fair CLR 18.3 17.2 21.1 17.2 93% 75.9 1011.4
02 05:53 E 7 16.09 Fair CLR 17.8 16.7 93% 75.9 1011.4
02 04:53 N 11 16.09 Fair CLR 18.3 16.1 87% 75.92 1011.8
02 03:53 SW 7 16.09 Partly Cloudy SCT110 18.3 15.6 84% 76.02 1013.0
02 02:53 N 6 16.09 Fair CLR 19.4 15.6 79% 75.9 1011.1
02 01:53 E 9 16.09 Fair CLR 20.6 16.1 76% 75.87 1010.9
02 00:53 E 13 16.09 Partly Cloudy FEW049 SCT060 20.6 17.2 25 20.6 81% 75.97 1012.4
01 23:53 N 6 16.09 Light Rain FEW046 FEW060 20.6 17.2 81% 75.95 1011.9
01 22:53 Calm 16.09 Mostly Cloudy BKN050 21.7 16.7 73% 76.02 1013.0
01 21:53 N 6 16.09 Fair CLR 22.8 16.7 69% 76 1012.6
01 20:53 Calm 16.09 Fair CLR 22.8 18.3 76% 76 1012.8
Date Time (cdt) Wind (kph) Vis. (km) Weather Sky Cond. Air Dwpt Max. Min. Relative Humidity Wind Chill (°C) Heat Index (°C) altimeter (cm) sea level (mb) 1 hr 3 hr 6 hr
6 hour
Temperature (ºC) Pressure Precipitation (cm)